Lethbridge, Canada
Current Conditions -  °F | °C
As of 8:41 PM on Friday 28 Nov 2014 (Local Time) from CYQL Reporting Station
Light Snow Light Snow  
Wind Chill: -24°   Ceiling: 2000
Heat Index: -4°   Visibility: 1.7mi
Dew Point: -9°   Wind: 15mph
Humidity: 78%   Direction: 330°NNW
Pressure: 29.71"   Gusts: NA
Location:  49.69°N, 112.83°W
Report Text: CYQL 290341Z AUTO 33013KT 1 3/4SM -SN OVC020 M20/M23 A2971 RMK SLP143
Loading
Personal Weather Stations






























Interactive Weather Map New forecast layout! Learn more

10-Day Weather Forecast

Advertisements
Track Severe Weather on mobile